Time;durP1;ratioP1;P1;durP2;ratioP2;P2;SDS_P1;SDS_P2;PMS_P1;PMS_P2;Temp;Humidity;BMP_temperature;BMP_pressure;BME280_temperature;BME280_humidity;BME280_pressure;Samples;Min_cycle;Max_cycle;Signal;HPM_P1;HPM_P2
2024/04/02 00:01:09;;;;;;;23.00;5.72;;;;;;;19.44;54.72;99006.56;5093627;28;20031;-38
2024/04/02 00:03:35;;;;;;;25.15;6.07;;;;;;;19.33;54.55;98995.06;5093212;28;20024;-35
2024/04/02 00:06:01;;;;;;;21.25;5.53;;;;;;;19.42;54.06;99012.28;5093537;28;20096;-38
2024/04/02 00:08:29;;;;;;;24.67;6.22;;;;;;;19.23;54.04;99000.50;5093346;28;20043;-38
2024/04/02 00:11:02;;;;;;;25.85;5.78;;;;;;;18.92;55.11;99003.34;5093098;28;20105;-39
2024/04/02 00:13:28;;;;;;;26.83;6.40;;;;;;;18.81;55.40;99016.09;5093043;28;20107;-39
2024/04/02 00:15:53;;;;;;;24.95;5.40;;;;;;;18.83;54.96;98994.22;5093272;28;20107;-37
2024/04/02 00:18:19;;;;;;;23.80;5.68;;;;;;;18.04;56.12;98983.09;5093153;28;20028;-39
2024/04/02 00:20:44;;;;;;;19.10;4.93;;;;;;;18.07;55.92;99004.91;5091818;28;20142;-36
2024/04/02 00:23:10;;;;;;;24.10;5.68;;;;;;;18.39;55.22;98992.19;5093136;28;20031;-39
2024/04/02 00:25:36;;;;;;;20.77;4.75;;;;;;;18.41;54.92;98990.84;5093040;28;20195;-37
2024/04/02 00:28:03;;;;;;;17.60;5.28;;;;;;;18.51;54.91;98992.69;5092032;28;20024;-39
2024/04/02 00:30:29;;;;;;;21.33;5.60;;;;;;;18.05;55.82;98980.13;5092935;28;20036;-39
2024/04/02 00:32:56;;;;;;;24.65;5.60;;;;;;;18.12;55.12;98974.47;5092801;28;20036;-38
2024/04/02 00:35:22;;;;;;;18.27;5.53;;;;;;;18.37;54.52;98984.38;5092931;28;20081;-38
2024/04/02 00:37:48;;;;;;;20.02;5.57;;;;;;;18.43;53.72;98977.09;5092656;28;20055;-39
2024/04/02 00:40:14;;;;;;;25.08;5.32;;;;;;;18.65;53.91;98961.38;5092896;28;20090;-39
2024/04/02 00:42:39;;;;;;;20.05;5.68;;;;;;;18.27;54.52;98970.94;5092660;28;20456;-39
2024/04/02 00:45:05;;;;;;;26.48;6.00;;;;;;;18.35;54.45;98965.81;5092867;28;20101;-40
2024/04/02 00:47:32;;;;;;;22.67;5.88;;;;;;;18.48;54.16;98969.78;5092704;28;20433;-38
2024/04/02 00:49:59;;;;;;;17.50;5.85;;;;;;;17.85;54.27;98967.50;5091130;28;20028;-38
2024/04/02 00:52:25;;;;;;;20.67;5.82;;;;;;;17.83;54.88;98975.00;5092435;28;20032;-38
2024/04/02 00:54:51;;;;;;;25.08;5.65;;;;;;;17.96;54.45;98969.09;5092479;28;20502;-39
2024/04/02 00:57:16;;;;;;;19.55;5.72;;;;;;;18.20;53.81;98956.94;5092327;28;20027;-39
2024/04/02 00:59:42;;;;;;;24.38;5.95;;;;;;;17.82;54.98;98976.09;5092047;28;20412;-38
2024/04/02 01:02:07;;;;;;;26.45;6.13;;;;;;;17.93;54.86;98971.53;5092608;28;20035;-37
2024/04/02 01:04:36;;;;;;;26.38;5.60;;;;;;;17.71;55.87;98969.88;5092368;28;20088;-37
2024/04/02 01:07:02;;;;;;;18.40;5.47;;;;;;;17.75;55.81;98954.00;5092201;28;20051;-36
2024/04/02 01:09:29;;;;;;;20.42;6.50;;;;;;;17.63;56.39;98972.28;5092470;28;20170;-38
2024/04/02 01:11:56;;;;;;;17.60;5.40;;;;;;;17.87;55.14;98962.63;5092060;28;20024;-38
2024/04/02 01:14:21;;;;;;;24.65;5.15;;;;;;;17.73;55.79;98956.16;5091787;28;20038;-37
2024/04/02 01:16:47;;;;;;;20.95;5.40;;;;;;;17.79;55.07;98958.56;5091711;28;20107;-39
2024/04/02 01:19:12;;;;;;;24.52;5.53;;;;;;;17.94;55.01;98946.22;5089981;28;20020;-35
2024/04/02 01:21:38;;;;;;;16.42;5.53;;;;;;;17.88;55.25;98950.00;5078118;28;20024;-37
2024/04/02 01:24:05;;;;;;;24.35;5.68;;;;;;;17.48;56.43;98952.41;5075406;28;20391;-35
2024/04/02 01:26:30;;;;;;;20.02;5.55;;;;;;;17.43;55.83;98943.53;5090376;28;20020;-36
2024/04/02 01:28:58;;;;;;;24.77;6.03;;;;;;;17.20;56.04;98965.25;5091659;28;20070;-39
2024/04/02 01:31:30;;;;;;;21.52;4.88;;;;;;;17.53;55.48;98959.66;5092119;28;20024;-39
2024/04/02 01:33:56;;;;;;;20.42;4.90;;;;;;;17.79;54.50;98955.88;5091982;28;20074;-39
2024/04/02 01:36:22;;;;;;;13.95;4.90;;;;;;;17.28;54.77;98955.06;5091662;28;20043;-36
2024/04/02 01:38:47;;;;;;;21.35;5.43;;;;;;;17.38;54.62;98955.06;5091412;28;20040;-39
2024/04/02 01:41:13;;;;;;;23.58;5.93;;;;;;;17.56;54.32;98954.53;5091512;28;20020;-39
2024/04/02 01:43:38;;;;;;;26.80;5.40;;;;;;;17.70;53.69;98954.00;5091954;28;20051;-41
2024/04/02 01:46:04;;;;;;;17.92;5.10;;;;;;;17.74;54.24;98952.38;5091350;28;20373;-38
2024/04/02 01:48:29;;;;;;;19.77;5.05;;;;;;;17.49;53.83;98967.44;5092201;28;20020;-39
2024/04/02 01:50:55;;;;;;;21.60;5.10;;;;;;;17.51;53.35;98940.28;5092071;28;20020;-38
2024/04/02 01:53:20;;;;;;;18.88;5.13;;;;;;;16.54;56.89;98957.75;5092024;28;20020;-39
2024/04/02 01:55:46;;;;;;;16.70;4.63;;;;;;;16.74;56.20;98957.03;5091982;28;20020;-39
2024/04/02 01:58:11;;;;;;;21.33;5.40;;;;;;;16.96;56.55;98961.44;5092082;28;20119;-38
2024/04/02 02:00:36;;;;;;;17.52;5.20;;;;;;;17.31;55.08;98954.53;5092106;28;20444;-39
2024/04/02 02:03:03;;;;;;;20.08;5.20;;;;;;;17.26;55.19;98949.94;5091779;28;20042;-39
2024/04/02 02:05:29;;;;;;;23.70;5.43;;;;;;;17.46;54.55;98951.88;5092177;28;20432;-38
2024/04/02 02:07:54;;;;;;;20.95;5.20;;;;;;;17.75;53.45;98954.81;5091768;28;20495;-38
2024/04/02 02:10:20;;;;;;;17.65;5.15;;;;;;;17.64;53.50;98958.59;5091221;28;20157;-40
2024/04/02 02:13:03;;;;;;;15.77;4.85;;;;;;;17.69;53.56;98949.72;5091623;28;20043;-39
2024/04/02 02:15:53;;;;;;;22.30;5.32;;;;;;;17.50;54.88;98947.56;5091587;28;20432;-38
2024/04/02 02:21:14;;;;;;;19.42;4.95;;;;;;;17.90;53.35;98935.19;5090181;28;20047;-26
2024/04/02 02:23:40;;;;;;;22.08;5.35;;;;;;;17.83;53.80;98929.25;5091649;28;20020;-26
2024/04/02 02:26:06;;;;;;;22.17;5.57;;;;;;;17.74;54.59;98947.00;5091127;28;20058;-26
2024/04/02 02:28:31;;;;;;;16.90;5.43;;;;;;;17.84;53.84;98930.91;5091518;28;20050;-26
2024/04/02 02:30:56;;;;;;;21.48;5.55;;;;;;;17.75;53.77;98927.91;5091459;28;20027;-26
2024/04/02 02:33:22;;;;;;;22.90;5.43;;;;;;;17.51;53.20;98926.84;5091218;28;20024;-26
2024/04/02 02:35:54;;;;;;;22.77;5.68;;;;;;;17.46;53.72;98933.03;5091332;28;20160;-26
2024/04/02 02:38:19;;;;;;;21.08;5.95;;;;;;;17.52;53.81;98931.16;5091056;28;20448;-26
2024/04/02 02:40:44;;;;;;;23.25;5.57;;;;;;;17.13;55.22;98915.50;5091284;28;20116;-25
2024/04/02 02:43:10;;;;;;;22.25;5.35;;;;;;;17.20;54.18;98919.56;5091093;28;20035;-25
2024/04/02 02:45:35;;;;;;;19.73;5.53;;;;;;;17.17;54.95;98933.53;5091144;28;20081;-26
2024/04/02 02:48:01;;;;;;;23.67;5.40;;;;;;;17.36;54.45;98928.47;5091194;28;20034;-26
2024/04/02 02:50:26;;;;;;;21.83;5.43;;;;;;;17.38;53.58;98923.63;5092179;28;20049;-26
2024/04/02 02:52:52;;;;;;;20.85;5.43;;;;;;;17.39;53.62;98922.53;5097939;28;20016;-26
2024/04/02 02:55:19;;;;;;;26.48;5.43;;;;;;;17.30;54.69;98908.00;5097973;28;20024;-26
2024/04/02 02:57:45;;;;;;;18.05;5.10;;;;;;;17.06;54.43;98898.81;5097870;28;20399;-26
2024/04/02 03:00:11;;;;;;;20.50;4.78;;;;;;;17.02;53.37;98901.25;5097947;28;20515;-26
2024/04/02 03:02:36;;;;;;;21.45;5.18;;;;;;;17.04;53.35;98914.41;5097789;28;20521;-26
2024/04/02 03:05:03;;;;;;;17.83;4.85;;;;;;;16.95;54.45;98903.41;5097194;28;20498;-25
2024/04/02 03:07:28;;;;;;;18.52;5.70;;;;;;;17.17;54.30;98919.28;5098090;28;20162;-26
2024/04/02 03:09:54;;;;;;;18.33;5.30;;;;;;;17.22;54.59;98923.88;5097167;28;20120;-26
2024/04/02 03:12:19;;;;;;;21.25;5.53;;;;;;;17.26;54.27;98916.88;5097004;28;20035;-26
2024/04/02 03:14:45;;;;;;;21.70;5.28;;;;;;;17.31;54.01;98906.13;5097290;28;20036;-26
2024/04/02 03:17:10;;;;;;;23.25;5.50;;;;;;;17.41;53.81;98922.25;5097032;28;20028;-26
2024/04/02 03:19:36;;;;;;;22.38;5.15;;;;;;;17.39;53.50;98933.28;5097075;28;20024;-26
2024/04/02 03:22:01;;;;;;;21.35;5.25;;;;;;;17.44;53.19;98926.28;5097667;28;20134;-25
2024/04/02 03:24:26;;;;;;;18.38;5.07;;;;;;;17.24;53.62;98911.75;5097218;28;20020;-26
2024/04/02 03:26:52;;;;;;;19.05;4.93;;;;;;;16.85;54.97;98909.56;5097580;28;20042;-26
2024/04/02 03:29:18;;;;;;;26.52;5.57;;;;;;;16.56;56.24;98898.41;5097344;28;20032;-26
2024/04/02 03:31:46;;;;;;;18.60;5.47;;;;;;;15.73;58.27;98883.75;5097099;28;20050;-26
2024/04/02 03:34:12;;;;;;;24.08;6.43;;;;;;;16.12;58.83;98904.13;5097267;28;20020;-26
2024/04/02 03:36:37;;;;;;;27.35;6.05;;;;;;;16.37;57.88;98900.75;5097037;28;20493;-26
2024/04/02 03:39:03;;;;;;;24.58;5.82;;;;;;;16.30;57.66;98882.19;5097207;28;20044;-26
2024/04/02 03:41:28;;;;;;;21.55;5.78;;;;;;;16.45;57.13;98910.16;5097317;28;20024;-27
2024/04/02 03:43:53;;;;;;;21.40;5.82;;;;;;;16.57;56.82;98886.59;5096693;28;20024;-26
2024/04/02 03:46:19;;;;;;;19.02;5.53;;;;;;;16.65;56.40;98907.56;5097406;28;20547;-26
2024/04/02 03:48:48;;;;;;;19.05;6.10;;;;;;;16.36;57.05;98896.47;5097801;28;20052;-26
2024/04/02 03:51:15;;;;;;;22.05;6.18;;;;;;;16.19;57.47;98899.31;5097747;28;20032;-26
2024/04/02 03:53:40;;;;;;;27.55;5.40;;;;;;;16.21;57.51;98897.97;5097720;28;20099;-26
2024/04/02 03:56:06;;;;;;;19.00;5.70;;;;;;;16.32;57.08;98888.13;5097366;28;20027;-26
2024/04/02 03:58:31;;;;;;;23.02;5.43;;;;;;;16.38;56.38;98883.56;5097559;28;20462;-26
2024/04/02 04:00:57;;;;;;;27.52;5.95;;;;;;;16.30;56.82;98901.00;5097693;28;20020;-26
2024/04/02 04:03:25;;;;;;;25.25;6.10;;;;;;;16.38;56.58;98886.25;5093902;28;20149;-27
2024/04/02 04:06:01;;;;;;;20.83;6.03;;;;;;;16.49;57.06;98892.50;5094720;28;20027;-26
2024/04/02 04:08:27;;;;;;;26.00;5.78;;;;;;;16.39;56.83;98896.75;5094960;28;20024;-26
2024/04/02 04:10:53;;;;;;;26.88;6.40;;;;;;;16.20;56.74;98861.50;5094432;28;20474;-27
2024/04/02 04:13:22;;;;;;;25.23;5.78;;;;;;;16.13;56.33;98882.38;5094114;28;20040;-26
2024/04/02 04:16:01;;;;;;;26.98;5.70;;;;;;;15.60;58.19;98884.19;5094454;28;20020;-26
2024/04/02 04:18:27;;;;;;;27.70;6.03;;;;;;;15.95;57.39;98890.88;5094015;28;20024;-26
2024/04/02 04:20:57;;;;;;;18.65;5.68;;;;;;;16.10;57.16;98906.25;5094319;28;20544;-26
2024/04/02 04:23:22;;;;;;;17.52;5.45;;;;;;;16.38;55.79;98895.13;5094582;28;20024;-26
2024/04/02 04:25:55;;;;;;;17.95;4.85;;;;;;;15.92;55.83;98880.66;5093979;28;20368;-27
2024/04/02 04:28:21;;;;;;;22.48;5.78;;;;;;;16.38;54.98;98892.44;5093953;28;20068;-26
2024/04/02 04:30:57;;;;;;;25.95;5.95;;;;;;;16.63;54.92;98898.97;5094209;28;20024;-26
2024/04/02 04:33:23;;;;;;;30.10;7.65;;;;;;;16.52;65.61;98916.13;5094035;28;20055;-25
2024/04/02 04:35:50;;;;;;;23.17;6.10;;;;;;;16.70;61.36;98899.53;5093737;28;20583;-26
2024/04/02 04:38:16;;;;;;;26.25;5.57;;;;;;;16.64;56.18;98894.41;5092558;28;20085;-41
2024/04/02 04:40:42;;;;;;;24.90;6.55;;;;;;;16.47;56.50;98894.59;5093987;28;20070;-40
2024/04/02 04:43:07;;;;;;;29.05;6.43;;;;;;;16.45;55.98;98883.31;5093597;28;20372;-39
2024/04/02 04:45:33;;;;;;;32.42;7.35;;;;;;;16.68;55.61;98882.06;5093787;28;20032;-40
2024/04/02 04:47:59;;;;;;;28.30;5.63;;;;;;;16.33;56.22;98867.44;5093781;28;20247;-40
2024/04/02 04:50:25;;;;;;;23.25;6.80;;;;;;;16.42;55.75;98877.41;5093814;28;20161;-40
2024/04/02 04:52:51;;;;;;;29.70;7.13;;;;;;;16.64;59.19;98875.59;5093332;28;20028;-40
2024/04/02 04:55:17;;;;;;;34.45;6.60;;;;;;;16.84;56.06;98866.81;5093835;28;20102;-40
2024/04/02 04:57:42;;;;;;;26.80;5.80;;;;;;;16.73;54.57;98884.75;5093548;28;20108;-40
2024/04/02 05:00:08;;;;;;;21.38;6.30;;;;;;;16.59;55.23;98887.16;5093700;28;20510;-41
2024/04/02 05:02:34;;;;;;;34.58;6.43;;;;;;;16.39;56.23;98869.06;5092267;28;20032;-39
2024/04/02 05:04:59;;;;;;;25.92;6.47;;;;;;;16.27;55.81;98895.34;5093107;28;20031;-39
2024/04/02 05:07:25;;;;;;;22.10;5.82;;;;;;;16.73;54.93;98882.88;5092553;28;20028;-40
2024/04/02 05:09:51;;;;;;;28.95;5.88;;;;;;;16.91;53.84;98870.06;5092435;28;20484;-41
2024/04/02 05:12:17;;;;;;;25.08;5.60;;;;;;;17.02;53.51;98870.88;5092541;28;20109;-40
2024/04/02 05:14:43;;;;;;;34.35;6.70;;;;;;;16.60;53.67;98886.88;5092857;28;20032;-40
2024/04/02 05:17:09;;;;;;;24.13;6.25;;;;;;;16.51;54.86;98856.22;5092657;28;20023;-41
2024/04/02 05:19:34;;;;;;;18.25;5.32;;;;;;;16.65;53.74;98866.47;5092700;28;20028;-39
2024/04/02 05:21:59;;;;;;;24.35;6.68;;;;;;;16.25;55.82;98862.59;5092123;28;20056;-40
2024/04/02 05:24:25;;;;;;;26.15;5.55;;;;;;;16.55;54.32;98851.94;5092333;28;20046;-40
2024/04/02 05:26:50;;;;;;;18.95;5.15;;;;;;;16.38;53.69;98860.22;5092397;28;20081;-40
2024/04/02 05:29:16;;;;;;;24.13;5.60;;;;;;;16.71;53.26;98887.72;5075374;28;20047;-41
2024/04/02 05:31:42;;;;;;;25.50;5.72;;;;;;;16.59;54.03;98874.50;5072140;28;20032;-40
2024/04/02 05:34:08;;;;;;;27.15;5.28;;;;;;;16.92;53.68;98880.53;5083081;28;20044;-39
2024/04/02 05:36:33;;;;;;;25.42;5.03;;;;;;;17.31;51.51;98880.03;5092460;28;20463;-38
2024/04/02 05:38:59;;;;;;;19.98;6.78;;;;;;;17.29;52.13;98884.88;5092403;28;20488;-39
2024/04/02 05:41:24;;;;;;;28.95;5.78;;;;;;;17.20;52.18;98887.28;5092378;28;20399;-39
2024/04/02 05:43:50;;;;;;;33.92;10.02;;;;;;;17.13;53.07;98877.88;5091388;28;20032;-41
2024/04/02 05:46:15;;;;;;;22.45;5.80;;;;;;;17.69;51.28;98885.16;5078330;28;20086;-40
2024/04/02 05:48:41;;;;;;;16.10;5.00;;;;;;;17.87;49.48;98878.41;5074675;28;20020;-38
2024/04/02 05:51:06;;;;;;;22.17;5.20;;;;;;;17.68;52.48;98873.56;5091163;28;20171;-40
2024/04/02 05:53:31;;;;;;;17.98;5.57;;;;;;;18.40;56.32;98864.53;5077879;28;20016;-40
2024/04/02 05:55:59;;;;;;;25.35;5.68;;;;;;;18.86;49.54;98872.38;5091483;28;20024;-41
2024/04/02 05:58:25;;;;;;;25.88;4.90;;;;;;;18.53;49.38;98859.34;5091307;28;20017;-39
2024/04/02 06:01:03;;;;;;;22.52;5.35;;;;;;;18.92;50.21;98871.25;5091589;28;20024;-40
2024/04/02 06:03:29;;;;;;;18.63;5.18;;;;;;;19.56;49.49;98882.13;5091513;28;20465;-40
2024/04/02 06:05:54;;;;;;;19.83;4.80;;;;;;;20.07;45.93;98871.66;5091714;28;20031;-38
2024/04/02 06:08:20;;;;;;;17.58;4.38;;;;;;;20.27;44.80;98881.41;5091591;28;20019;-38
2024/04/02 06:10:45;;;;;;;28.55;5.25;;;;;;;20.64;44.39;98885.31;5091575;28;20020;-38
2024/04/02 06:13:10;;;;;;;20.02;5.30;;;;;;;21.08;43.53;98880.66;5083787;28;20029;-37
2024/04/02 06:15:36;;;;;;;31.67;5.75;;;;;;;21.24;43.69;98900.13;5091451;28;20031;-36
2024/04/02 06:18:01;;;;;;;19.77;5.10;;;;;;;21.52;44.42;98914.63;5071287;28;20729;-38
2024/04/02 06:20:26;;;;;;;23.92;5.43;;;;;;;22.13;43.45;98918.16;5081051;28;20484;-38
2024/04/02 06:22:52;;;;;;;32.38;8.55;;;;;;;22.06;42.23;98923.16;5090359;28;20036;-39
2024/04/02 06:25:17;;;;;;;36.45;9.55;;;;;;;21.59;42.33;98938.56;5090815;28;20089;-36
2024/04/02 06:27:43;;;;;;;39.95;9.82;;;;;;;21.94;45.44;98950.72;5090359;28;20415;-40
2024/04/02 06:30:08;;;;;;;34.25;7.00;;;;;;;22.23;42.38;98931.47;5090399;28;20024;-41
2024/04/02 06:32:34;;;;;;;34.70;8.23;;;;;;;22.37;43.39;98946.97;5090469;28;20024;-42
2024/04/02 06:34:59;;;;;;;26.95;7.32;;;;;;;23.06;40.73;98940.72;5091028;28;20020;-41
2024/04/02 06:37:25;;;;;;;39.28;7.97;;;;;;;23.50;40.04;98952.75;5090706;28;20031;-40
2024/04/02 06:39:50;;;;;;;23.73;6.82;;;;;;;23.52;38.48;98947.81;5090503;28;20373;-41
2024/04/02 06:42:15;;;;;;;21.67;5.10;;;;;;;23.87;37.05;98950.75;5091298;28;20115;-39
2024/04/02 06:44:41;;;;;;;26.20;5.35;;;;;;;23.64;37.55;98950.75;5091109;28;20417;-39
2024/04/02 06:47:06;;;;;;;21.13;4.55;;;;;;;24.00;36.68;98949.88;5091014;28;20024;-38
2024/04/02 06:49:32;;;;;;;23.83;4.72;;;;;;;24.28;35.65;98953.22;5089906;28;20065;-43
2024/04/02 06:51:57;;;;;;;18.92;4.95;;;;;;;24.38;35.99;98933.09;5089870;28;20376;-40
2024/04/02 06:54:22;;;;;;;23.73;6.28;;;;;;;24.80;34.69;98933.53;5086848;28;20020;-40
2024/04/02 06:56:48;;;;;;;22.25;5.57;;;;;;;24.89;34.62;98933.56;5074838;28;20111;-38
2024/04/02 06:59:13;;;;;;;25.98;4.53;;;;;;;25.60;33.70;98936.00;5086864;28;20434;-38
2024/04/02 07:01:39;;;;;;;16.67;5.78;;;;;;;26.27;33.13;98950.09;5089756;28;20480;-38
2024/04/02 07:04:04;;;;;;;23.38;5.00;;;;;;;26.83;31.61;98934.44;5089555;28;20030;-42
2024/04/02 07:06:30;;;;;;;23.25;4.70;;;;;;;26.91;31.17;98935.50;5090388;28;20074;-40
2024/04/02 07:08:58;;;;;;;22.33;4.28;;;;;;;27.03;30.65;98934.78;5090898;28;20035;-39
2024/04/02 07:11:23;;;;;;;20.52;4.70;;;;;;;27.28;30.27;98927.53;5090583;28;20035;-39
2024/04/02 07:13:49;;;;;;;21.83;4.90;;;;;;;27.45;29.39;98932.03;5090886;28;20028;-38
2024/04/02 07:16:14;;;;;;;23.40;4.70;;;;;;;27.68;29.57;98919.63;5090199;28;20028;-40
2024/04/02 07:18:40;;;;;;;24.38;5.22;;;;;;;28.08;28.87;98918.22;5090762;28;20024;-40
2024/04/02 07:21:07;;;;;;;25.60;4.60;;;;;;;28.47;28.48;98914.00;5082821;28;20528;-39
2024/04/02 07:23:33;;;;;;;27.00;5.50;;;;;;;28.70;28.43;98918.25;5071122;28;20498;-40
2024/04/02 07:25:59;;;;;;;15.60;4.15;;;;;;;28.99;26.87;98915.22;5089658;28;20055;-41
2024/04/02 07:28:26;;;;;;;19.50;4.50;;;;;;;29.15;26.39;98925.47;5086089;28;20020;-40
2024/04/02 07:30:52;;;;;;;21.65;5.28;;;;;;;28.77;27.17;98912.97;5088300;28;20544;-40
2024/04/02 07:33:18;;;;;;;20.65;5.03;;;;;;;28.37;27.90;98911.75;5088979;28;20099;-42
2024/04/02 07:35:44;;;;;;;21.95;6.32;;;;;;;28.14;29.05;98908.66;5090287;28;20023;-40
2024/04/02 07:38:10;;;;;;;21.60;6.35;;;;;;;28.83;27.92;98915.13;5092747;28;20038;-42
2024/04/02 07:40:36;;;;;;;23.77;5.35;;;;;;;29.40;27.35;98907.78;5093776;28;20020;-40
2024/04/02 07:43:03;;;;;;;21.52;4.40;;;;;;;29.65;26.58;98899.44;5094135;28;20020;-41
2024/04/02 07:45:28;;;;;;;26.05;5.82;;;;;;;29.27;26.66;98906.25;5094097;28;20024;-39
2024/04/02 07:47:54;;;;;;;23.35;4.85;;;;;;;28.89;27.11;98904.75;5093957;28;20020;-39
2024/04/02 07:50:20;;;;;;;24.73;6.00;;;;;;;28.45;28.78;98901.81;5093758;28;20012;-43
2024/04/02 07:52:45;;;;;;;24.92;4.97;;;;;;;29.55;27.16;98908.97;5094001;28;20103;-40
2024/04/02 07:55:11;;;;;;;19.42;4.40;;;;;;;29.76;25.89;98902.50;5093616;28;20080;-41
2024/04/02 07:57:36;;;;;;;21.58;4.72;;;;;;;30.72;25.21;98906.78;5093660;28;20020;-41
2024/04/02 08:00:03;;;;;;;25.70;5.18;;;;;;;31.12;24.94;98911.19;5091062;28;20016;-38
2024/04/02 08:02:28;;;;;;;18.38;4.53;;;;;;;30.94;24.57;98916.31;5093533;28;20016;-42
2024/04/02 08:04:53;;;;;;;25.98;5.00;;;;;;;30.92;24.36;98910.38;5092216;28;20476;-42
2024/04/02 08:07:20;;;;;;;23.42;4.93;;;;;;;31.38;23.72;98912.50;5093327;28;20134;-40
2024/04/02 08:09:46;;;;;;;19.83;5.43;;;;;;;30.64;24.33;98901.50;5090677;28;20024;-42
2024/04/02 08:12:12;;;;;;;18.67;4.63;;;;;;;31.03;24.77;98896.06;5093435;28;20027;-40
2024/04/02 08:14:38;;;;;;;30.52;5.50;;;;;;;31.67;23.13;98911.09;5093431;28;20020;-42
2024/04/02 08:17:04;;;;;;;19.50;5.57;;;;;;;31.25;23.53;98902.81;5092601;28;20023;-43
2024/04/02 08:19:29;;;;;;;27.63;5.75;;;;;;;31.18;23.32;98889.69;5091796;28;20092;-40
2024/04/02 08:21:55;;;;;;;27.45;5.65;;;;;;;31.12;24.05;98902.16;5091759;28;20055;-40
2024/04/02 08:24:21;;;;;;;32.03;5.30;;;;;;;31.36;23.83;98901.84;5093108;28;20081;-42
2024/04/02 08:26:47;;;;;;;21.25;4.93;;;;;;;31.33;23.59;98894.31;5093080;28;20016;-39
2024/04/02 08:29:12;;;;;;;26.40;6.05;;;;;;;31.16;23.94;98897.53;5091663;28;20039;-40
2024/04/02 08:31:37;;;;;;;26.67;6.50;;;;;;;30.94;24.02;98894.34;5090624;28;20024;-43
2024/04/02 08:34:03;;;;;;;31.33;6.95;;;;;;;30.55;24.98;98902.47;5093071;28;20106;-40
2024/04/02 08:36:29;;;;;;;25.58;6.00;;;;;;;30.92;25.05;98904.06;5093482;28;20028;-39
2024/04/02 08:38:55;;;;;;;28.65;7.18;;;;;;;30.85;23.90;98893.72;5093458;28;20686;-41
2024/04/02 08:41:24;;;;;;;20.55;6.38;;;;;;;30.76;24.92;98882.94;5093409;28;20046;-42
2024/04/02 08:43:51;;;;;;;26.95;6.05;;;;;;;30.23;24.63;98887.97;5093107;28;20027;-40
2024/04/02 08:46:17;;;;;;;29.15;6.40;;;;;;;31.07;24.76;98894.19;5093410;28;20031;-40
2024/04/02 08:48:43;;;;;;;38.83;6.88;;;;;;;31.44;24.43;98888.25;5092369;28;20032;-40
2024/04/02 08:51:10;;;;;;;25.33;6.05;;;;;;;31.76;23.60;98894.38;5093348;28;20035;-42
2024/04/02 08:53:35;;;;;;;33.75;7.43;;;;;;;31.56;24.04;98894.38;5093195;28;20048;-39
2024/04/02 08:56:02;;;;;;;33.33;6.55;;;;;;;31.47;24.13;98887.53;5091935;28;20172;-40
2024/04/02 08:58:29;;;;;;;29.80;7.05;;;;;;;32.22;24.12;98879.81;5092386;28;20084;-28
2024/04/02 09:00:56;;;;;;;25.80;5.78;;;;;;;32.99;23.70;98870.25;5086342;28;20119;-28
2024/04/02 09:03:23;;;;;;;36.05;5.85;;;;;;;32.77;23.89;98865.66;5079998;28;20104;-28
2024/04/02 09:05:48;;;;;;;26.95;5.88;;;;;;;33.22;23.72;98869.38;5091856;28;20031;-27
2024/04/02 09:08:14;;;;;;;25.92;5.90;;;;;;;33.58;23.52;98869.75;5091178;28;20016;-27
2024/04/02 09:10:41;;;;;;;38.60;6.25;;;;;;;33.68;22.67;98878.16;5091950;28;20050;-28
2024/04/02 09:13:06;;;;;;;28.48;5.75;;;;;;;33.90;22.53;98875.56;5091844;28;20077;-26
2024/04/02 09:15:31;;;;;;;28.75;9.68;;;;;;;33.26;23.79;98872.94;5091729;28;20012;-29
2024/04/02 09:17:57;;;;;;;29.35;5.70;;;;;;;32.95;24.00;98869.44;5092133;28;20024;-27
2024/04/02 09:20:22;;;;;;;30.88;5.75;;;;;;;33.58;23.86;98878.81;5091636;28;20016;-27
2024/04/02 09:22:48;;;;;;;31.10;5.97;;;;;;;33.97;23.35;98872.88;5090209;28;20039;-27
2024/04/02 09:25:14;;;;;;;31.67;5.35;;;;;;;33.77;23.36;98871.53;5091556;28;20387;-28
2024/04/02 09:27:39;;;;;;;30.30;5.57;;;;;;;32.75;24.16;98870.72;5089031;28;20120;-27
2024/04/02 09:30:06;;;;;;;27.60;5.15;;;;;;;32.99;24.02;98853.72;5091642;28;20115;-27
2024/04/02 09:32:38;;;;;;;26.08;5.18;;;;;;;33.72;23.30;98849.81;5083643;28;20519;-28
2024/04/02 09:35:13;;;;;;;24.60;5.47;;;;;;;33.97;23.33;98850.81;5091331;28;20111;-25
2024/04/02 09:37:48;;;;;;;26.60;5.50;;;;;;;34.24;23.27;98847.88;5091849;28;20031;-29
2024/04/02 09:40:16;;;;;;;24.23;4.78;;;;;;;34.56;22.80;98845.31;5078499;28;20445;-27
2024/04/02 09:42:47;;;;;;;28.90;4.97;;;;;;;34.76;22.77;98843.03;5078712;28;20111;-27
2024/04/02 09:45:13;;;;;;;23.75;5.68;;;;;;;35.00;22.70;98838.78;5083090;28;20543;-26
2024/04/02 09:47:42;;;;;;;26.23;5.00;;;;;;;35.42;21.80;98837.34;5090818;28;20106;-28
2024/04/02 09:50:08;;;;;;;88.43;15.00;;;;;;;35.22;21.96;98825.88;5088814;28;20482;-28
2024/04/02 09:52:34;;;;;;;25.55;6.57;;;;;;;35.24;21.49;98823.50;5088233;28;20030;-29
2024/04/02 09:55:00;;;;;;;28.05;5.47;;;;;;;35.54;21.56;98829.84;5090661;28;20031;-27
2024/04/02 09:57:26;;;;;;;28.70;5.50;;;;;;;35.95;21.17;98821.97;5090498;28;20024;-39
2024/04/02 09:59:52;;;;;;;29.02;5.40;;;;;;;36.41;20.90;98823.09;5090493;28;20021;-46
2024/04/02 10:02:25;;;;;;;32.97;6.13;;;;;;;36.59;20.56;98829.38;5088814;28;20084;-39
2024/04/02 10:04:51;;;;;;;41.78;8.13;;;;;;;34.90;21.33;98819.41;5086196;28;20118;-37
2024/04/02 10:07:27;;;;;;;33.22;6.05;;;;;;;34.74;22.28;98814.22;5087104;28;20380;-38
2024/04/02 10:10:00;;;;;;;23.85;5.32;;;;;;;35.54;21.51;98799.44;5090682;28;20030;-40
2024/04/02 10:12:33;;;;;;;24.05;5.43;;;;;;;36.47;20.58;98804.88;5091139;28;20111;-36
2024/04/02 10:15:07;;;;;;;32.08;5.38;;;;;;;37.20;20.04;98791.50;5091585;28;20028;-38
2024/04/02 10:17:36;;;;;;;25.25;5.65;;;;;;;37.51;19.60;98796.03;5090919;28;20016;-38
2024/04/02 10:20:02;;;;;;;26.00;5.57;;;;;;;36.83;18.22;98792.88;5090509;28;20024;-36
2024/04/02 10:22:31;;;;;;;26.52;5.18;;;;;;;37.11;18.50;98792.72;5090633;28;20136;-36
2024/04/02 10:25:12;;;;;;;29.70;5.50;;;;;;;35.72;18.85;98783.66;5090868;28;20024;-36
2024/04/02 10:27:43;;;;;;;27.30;5.10;;;;;;;36.05;19.00;98780.84;5088501;28;20023;-36
2024/04/02 10:30:20;;;;;;;26.88;4.85;;;;;;;36.15;19.05;98783.56;5090177;28;20024;-39
2024/04/02 10:32:46;;;;;;;22.45;4.70;;;;;;;36.39;18.75;98776.41;5090391;28;20024;-39
2024/04/02 10:35:17;;;;;;;25.15;5.25;;;;;;;36.83;18.37;98790.13;5090903;28;20028;-38
2024/04/02 10:37:44;;;;;;;29.15;5.30;;;;;;;36.73;18.52;98791.75;5088798;28;20056;-38
2024/04/02 10:40:09;;;;;;;28.02;4.85;;;;;;;36.07;18.13;98784.78;5090508;28;20113;-41
2024/04/02 10:42:37;;;;;;;25.63;5.07;;;;;;;35.75;18.57;98776.53;5075254;28;20067;-37
2024/04/02 10:45:03;;;;;;;20.45;4.70;;;;;;;35.45;18.92;98777.69;5080902;28;20020;-40
2024/04/02 10:47:29;;;;;;;31.48;5.10;;;;;;;35.70;18.86;98763.91;5090444;28;20396;-39
2024/04/02 10:49:56;;;;;;;31.95;5.05;;;;;;;35.95;19.27;98763.06;5090089;28;20032;-36
2024/04/02 10:52:21;;;;;;;27.42;5.22;;;;;;;35.97;19.10;98758.72;5090995;28;20024;-39
2024/04/02 10:54:46;;;;;;;33.88;5.45;;;;;;;35.70;19.73;98749.25;5090832;28;20452;-38
2024/04/02 10:57:12;;;;;;;24.83;5.15;;;;;;;35.41;19.47;98752.81;5090548;28;20116;-40
2024/04/02 10:59:42;;;;;;;38.78;5.93;;;;;;;35.12;19.48;98748.41;5090862;28;20039;-37
2024/04/02 11:02:18;;;;;;;22.65;4.97;;;;;;;35.59;19.37;98743.72;5090671;28;20024;-38
2024/04/02 11:04:44;;;;;;;28.67;5.32;;;;;;;34.97;19.01;98737.31;5090791;28;20081;-38
2024/04/02 11:07:11;;;;;;;30.23;4.60;;;;;;;35.11;18.85;98736.56;5090738;28;20043;-37
2024/04/02 11:09:40;;;;;;;29.55;4.95;;;;;;;34.11;19.27;98742.47;5090735;28;20023;-40
2024/04/02 11:12:08;;;;;;;;;;;;;;;34.46;19.11;98735.56;5092338;28;20552;-38
2024/04/02 11:14:36;;;;;;;31.40;4.55;;;;;;;34.44;19.12;98721.34;5088458;28;19912;-40
2024/04/02 11:17:02;;;;;;;26.75;4.22;;;;;;;34.74;18.68;98720.31;5086597;28;20054;-35
2024/04/02 11:19:28;;;;;;;27.80;4.80;;;;;;;34.82;18.70;98716.38;5094749;28;20024;-37
2024/04/02 11:27:25;;;;;;;23.65;4.22;;;;;;;33.36;18.16;98695.06;5095088;28;20058;-41
2024/04/02 11:29:52;;;;;;;27.35;4.65;;;;;;;33.49;18.11;98693.56;5094570;28;20069;-37